^^
Grace C. Lehan Memorial Weather Station Historical Data
Daily Summary for August 7, 2021 Units:  Both    English   Metric
Daily Weekly Monthly Yearly
  High: Low: Average:
Temperature: 86.6 °F /  30.3 °C 67.8 °F /  19.9 °C 77.8 °F /  25.4 °C
Dew Point: 73.2 °F /  22.9 °C 64.7 °F /  18.2 °C 68.4 °F /  20.2 °C
Humidity: 93% 54.8% 74%
Wind Speed: 2.3mph /  3.7km/h - 0.2mph /  0.3km/h
Wind Gust: 11mph /  17.7km/h - -
Wind- - WSW
Pressure: 30.07 in /  1018.2 hPa 29.97 in /  1014.8 hPa -
Precipitation: 0.00 in /  0 mm    
 
 
Tabular Data for August 7, 2021
Time Temperature Dew Point Pressure Wind Wind Speed Wind Gust Humidity Rainfall Rate (Hourly) solar
00:09 73.2 °F /  22.9 °C 65.9 °F /  18.8 °C 30.07in /  1018.2hPa Calm     78% 0.00in /  0mm 0 W/m2
00:14 73 °F /  22.8 °C 65.8 °F /  18.8 °C 30.07in /  1018.2hPa Calm     78% 0.00in /  0mm 0 W/m2
00:19 72.9 °F /  22.7 °C 65.7 °F /  18.7 °C 30.07in /  1018.2hPa Calm     78% 0.00in /  0mm 0 W/m2
00:24 72.8 °F /  22.7 °C 65.9 °F /  18.8 °C 30.07in /  1018.2hPa Calm     79% 0.00in /  0mm 0 W/m2
00:29 72.6 °F /  22.6 °C 65.7 °F /  18.7 °C 30.07in /  1018.2hPa Calm     79% 0.00in /  0mm 0 W/m2
00:34 72.5 °F /  22.5 °C 65.6 °F /  18.7 °C 30.07in /  1018.2hPa Calm     79% 0.00in /  0mm 0 W/m2
00:39 72.3 °F /  22.4 °C 65.5 °F /  18.6 °C 30.07in /  1018.2hPa Calm     79.2% 0.00in /  0mm 0 W/m2
00:44 72.1 °F /  22.3 °C 65.6 °F /  18.7 °C 30.07in /  1018.2hPa Calm     80% 0.00in /  0mm 0 W/m2
00:49 72 °F /  22.2 °C 65.5 °F /  18.6 °C 30.07in /  1018.2hPa Calm     80% 0.00in /  0mm 0 W/m2
00:54 71.9 °F /  22.2 °C 65.5 °F /  18.6 °C 30.07in /  1018.2hPa Calm     80.3% 0.00in /  0mm 0 W/m2
00:59 71.7 °F /  22.1 °C 65.6 °F /  18.7 °C 30.07in /  1018.2hPa Calm     81% 0.00in /  0mm 0 W/m2
01:04 71.6 °F /  22 °C 65.5 °F /  18.6 °C 30.07in /  1018.2hPa Calm     81% 0.00in /  0mm 0 W/m2
01:09 71.6 °F /  22 °C 65.5 °F /  18.6 °C 30.07in /  1018.2hPa Calm     81% 0.00in /  0mm 0 W/m2
01:14 71.5 °F /  21.9 °C 65.7 °F /  18.7 °C 30.07in /  1018.2hPa Calm     82% 0.00in /  0mm 0 W/m2
01:19 71.5 °F /  21.9 °C 65.7 °F /  18.7 °C 30.07in /  1018.2hPa Calm     82% 0.00in /  0mm 0 W/m2
01:24 71.5 °F /  21.9 °C 65.7 °F /  18.7 °C 30.06in /  1017.8hPa Calm     82% 0.00in /  0mm 0 W/m2
01:29 71.4 °F /  21.9 °C 65.6 °F /  18.7 °C 30.06in /  1017.8hPa Calm     82% 0.00in /  0mm 0 W/m2
01:34 71.4 °F /  21.9 °C 65.6 °F /  18.7 °C 30.06in /  1017.8hPa Calm     82% 0.00in /  0mm 0 W/m2
01:39 71.3 °F /  21.8 °C 65.7 °F /  18.7 °C 30.06in /  1017.8hPa Calm     82.5% 0.00in /  0mm 0 W/m2
01:44 71.2 °F /  21.8 °C 65.5 °F /  18.6 °C 30.06in /  1017.8hPa Calm     82.4% 0.00in /  0mm 0 W/m2
01:49 71 °F /  21.7 °C 65.6 °F /  18.7 °C 30.06in /  1017.8hPa Calm     83% 0.00in /  0mm 0 W/m2
01:54 70.8 °F /  21.6 °C 65.4 °F /  18.6 °C 30.06in /  1017.8hPa Calm     83.2% 0.00in /  0mm 0 W/m2
01:59 70.6 °F /  21.4 °C 65.5 °F /  18.6 °C 30.06in /  1017.8hPa Calm     83.8% 0.00in /  0mm 0 W/m2
02:04 70.4 °F /  21.3 °C 65.4 °F /  18.6 °C 30.06in /  1017.8hPa Calm     84% 0.00in /  0mm 0 W/m2
02:09 70.3 °F /  21.3 °C 65.2 °F /  18.4 °C 30.06in /  1017.8hPa Calm     84% 0.00in /  0mm 0 W/m2
02:14 70.2 °F /  21.2 °C 65.3 °F /  18.5 °C 30.05in /  1017.5hPa Calm     84.4% 0.00in /  0mm 0 W/m2
02:19 70.1 °F /  21.2 °C 65.4 °F /  18.6 °C 30.05in /  1017.5hPa Calm     85% 0.00in /  0mm 0 W/m2
02:24 70 °F /  21.1 °C 65.3 °F /  18.5 °C 30.05in /  1017.5hPa Calm     85% 0.00in /  0mm 0 W/m2
02:29 69.9 °F /  21.1 °C 65.2 °F /  18.4 °C 30.05in /  1017.5hPa Calm     85% 0.00in /  0mm 0 W/m2
02:34 69.8 °F /  21 °C 65.1 °F /  18.4 °C 30.05in /  1017.5hPa Calm     85% 0.00in /  0mm 0 W/m2
02:39 69.8 °F /  21 °C 65.2 °F /  18.4 °C 30.05in /  1017.5hPa Calm     85.5% 0.00in /  0mm 0 W/m2
02:44 69.8 °F /  21 °C 65.4 °F /  18.6 °C 30.05in /  1017.5hPa Calm     86% 0.00in /  0mm 0 W/m2
02:49 69.8 °F /  21 °C 65.4 °F /  18.6 °C 30.05in /  1017.5hPa Calm     86% 0.00in /  0mm 0 W/m2
02:54 69.7 °F /  20.9 °C 65.3 °F /  18.5 °C 30.05in /  1017.5hPa Calm     86% 0.00in /  0mm 0 W/m2
02:59 69.6 °F /  20.9 °C 65.3 °F /  18.5 °C 30.05in /  1017.5hPa Calm     86% 0.00in /  0mm 0 W/m2
03:04 69.5 °F /  20.8 °C 65.3 °F /  18.5 °C 30.04in /  1017.2hPa Calm     86.3% 0.00in /  0mm 0 W/m2
03:09 69.4 °F /  20.8 °C 65.4 °F /  18.6 °C 30.04in /  1017.2hPa Calm     87% 0.00in /  0mm 0 W/m2
03:14 69.3 °F /  20.7 °C 65.2 °F /  18.4 °C 30.04in /  1017.2hPa Calm     86.8% 0.00in /  0mm 0 W/m2
03:19 69.2 °F /  20.7 °C 65.2 °F /  18.4 °C 30.04in /  1017.2hPa Calm     87% 0.00in /  0mm 0 W/m2
03:24 69.2 °F /  20.7 °C 65.1 °F /  18.4 °C 30.04in /  1017.2hPa Calm     87% 0.00in /  0mm 0 W/m2
03:29 69.1 °F /  20.6 °C 65.1 °F /  18.4 °C 30.04in /  1017.2hPa Calm     87% 0.00in /  0mm 0 W/m2
03:34 69 °F /  20.6 °C 65.2 °F /  18.4 °C 30.04in /  1017.2hPa Calm     87.7% 0.00in /  0mm 0 W/m2
03:39 69 °F /  20.6 °C 65.3 °F /  18.5 °C 30.04in /  1017.2hPa Calm     88% 0.00in /  0mm 0 W/m2
03:44 69 °F /  20.6 °C 65.3 °F /  18.5 °C 30.04in /  1017.2hPa Calm     88% 0.00in /  0mm 0 W/m2
03:49 68.9 °F /  20.5 °C 65.2 °F /  18.4 °C 30.04in /  1017.2hPa Calm     88% 0.00in /  0mm 0 W/m2
03:54 68.8 °F /  20.4 °C 65.2 °F /  18.4 °C 30.04in /  1017.2hPa Calm     88% 0.00in /  0mm 0 W/m2
03:59 68.8 °F /  20.4 °C 65.1 °F /  18.4 °C 30.04in /  1017.2hPa Calm     88% 0.00in /  0mm 0 W/m2
04:00 68.7 °F /  20.4 °C 65 °F /  18.3 °C 30.04in /  1017.2hPa Calm     88% 0.00in /  0mm 0 W/m2
04:09 68.6 °F /  20.3 °C 65.1 °F /  18.4 °C 30.04in /  1017.2hPa Calm     88.5% 0.00in /  0mm 0 W/m2
04:14 68.5 °F /  20.3 °C 65.2 °F /  18.4 °C 30.04in /  1017.2hPa Calm     89% 0.00in /  0mm 0 W/m2
04:19 68.5 °F /  20.3 °C 65.1 °F /  18.4 °C 30.04in /  1017.2hPa Calm     89% 0.00in /  0mm 0 W/m2
04:24 68.5 °F /  20.3 °C 65.1 °F /  18.4 °C 30.03in /  1016.8hPa Calm     89% 0.00in /  0mm 0 W/m2
04:29 68.4 °F /  20.2 °C 65 °F /  18.3 °C 30.03in /  1016.8hPa Calm     89% 0.00in /  0mm 0 W/m2
04:34 68.3 °F /  20.2 °C 64.9 °F /  18.3 °C 30.04in /  1017.2hPa Calm     89% 0.00in /  0mm 0 W/m2
04:39 68.2 °F /  20.1 °C 65 °F /  18.3 °C 30.04in /  1017.2hPa Calm     89.4% 0.00in /  0mm 0 W/m2
04:44 68.2 °F /  20.1 °C 64.9 °F /  18.3 °C 30.04in /  1017.2hPa Calm     89.3% 0.00in /  0mm 0 W/m2
04:49 68.2 °F /  20.1 °C 65.1 °F /  18.4 °C 30.04in /  1017.2hPa Calm     90% 0.00in /  0mm 0 W/m2
04:54 68.1 °F /  20.1 °C 65.1 °F /  18.4 °C 30.03in /  1016.8hPa Calm     90% 0.00in /  0mm 0 W/m2
04:59 68.1 °F /  20.1 °C 65 °F /  18.3 °C 30.03in /  1016.8hPa Calm     90% 0.00in /  0mm 0 W/m2
05:04 68 °F /  20 °C 65 °F /  18.3 °C 30.03in /  1016.8hPa Calm     90% 0.00in /  0mm 0 W/m2
05:09 68 °F /  20 °C 65 °F /  18.3 °C 30.04in /  1017.2hPa Calm     90% 0.00in /  0mm 0 W/m2
05:14 68 °F /  20 °C 65.1 °F /  18.4 °C 30.04in /  1017.2hPa Calm     90.4% 0.00in /  0mm 0 W/m2
05:19 67.9 °F /  19.9 °C 65.2 °F /  18.4 °C 30.03in /  1016.8hPa Calm     91% 0.00in /  0mm 0 W/m2
05:24 68 °F /  20 °C 65.3 °F /  18.5 °C 30.03in /  1016.8hPa Calm     91% 0.00in /  0mm 0 W/m2
05:29 68 °F /  20 °C 65.3 °F /  18.5 °C 30.03in /  1016.8hPa Calm     91% 0.00in /  0mm 0 W/m2
05:34 68 °F /  20 °C 65.3 °F /  18.5 °C 30.03in /  1016.8hPa Calm     91% 0.00in /  0mm 0 W/m2
05:39 68 °F /  20 °C 65.2 °F /  18.4 °C 30.03in /  1016.8hPa Calm     91% 0.00in /  0mm 0 W/m2
05:44 67.9 °F /  19.9 °C 65.3 °F /  18.5 °C 30.03in /  1016.8hPa Calm     91.4% 0.00in /  0mm 0 W/m2
05:49 67.9 °F /  19.9 °C 65.5 °F /  18.6 °C 30.03in /  1016.8hPa Calm     92% 0.00in /  0mm 0 W/m2
05:54 67.8 °F /  19.9 °C 65.4 °F /  18.6 °C 30.04in /  1017.2hPa Calm     92% 0.00in /  0mm 0 W/m2
05:59 67.9 °F /  19.9 °C 65.5 °F /  18.6 °C 30.04in /  1017.2hPa Calm     92% 0.00in /  0mm 0 W/m2
06:04 67.9 °F /  19.9 °C 65.5 °F /  18.6 °C 30.04in /  1017.2hPa Calm     92% 0.00in /  0mm 5 W/m2
06:09 67.9 °F /  19.9 °C 65.5 °F /  18.6 °C 30.04in /  1017.2hPa Calm     92% 0.00in /  0mm 9 W/m2
06:14 67.9 °F /  19.9 °C 65.5 °F /  18.6 °C 30.04in /  1017.2hPa Calm     92% 0.00in /  0mm 11 W/m2
06:19 67.9 °F /  19.9 °C 65.5 °F /  18.6 °C 30.04in /  1017.2hPa Calm     92% 0.00in /  0mm 14 W/m2
06:24 67.9 °F /  19.9 °C 65.5 °F /  18.6 °C 30.04in /  1017.2hPa Calm     92% 0.00in /  0mm 18 W/m2
06:29 68 °F /  20 °C 65.9 °F /  18.8 °C 30.04in /  1017.2hPa Calm     92.9% 0.00in /  0mm 25 W/m2
06:34 68.1 °F /  20.1 °C 66 °F /  18.9 °C 30.04in /  1017.2hPa Calm     93% 0.00in /  0mm 28 W/m2
06:39 68.1 °F /  20.1 °C 66 °F /  18.9 °C 30.04in /  1017.2hPa Calm     93% 0.00in /  0mm 33 W/m2
06:44 68.2 °F /  20.1 °C 66.1 °F /  18.9 °C 30.04in /  1017.2hPa Calm     93% 0.00in /  0mm 39 W/m2
06:49 68.3 °F /  20.2 °C 66.2 °F /  19 °C 30.04in /  1017.2hPa Calm     93% 0.00in /  0mm 56 W/m2
06:54 68.4 °F /  20.2 °C 66.3 °F /  19.1 °C 30.04in /  1017.2hPa Calm     93% 0.00in /  0mm 74 W/m2
06:59 68.6 °F /  20.3 °C 66.5 °F /  19.2 °C 30.04in /  1017.2hPa Calm     93% 0.00in /  0mm 81 W/m2
07:04 68.9 °F /  20.5 °C 66.8 °F /  19.3 °C 30.04in /  1017.2hPa Calm     93% 0.00in /  0mm 90 W/m2
07:09 69.2 °F /  20.7 °C 67.1 °F /  19.5 °C 30.04in /  1017.2hPa Calm     93% 0.00in /  0mm 90 W/m2
07:14 69.5 °F /  20.8 °C 67.3 °F /  19.6 °C 30.04in /  1017.2hPa Calm     92.8% 0.00in /  0mm 74 W/m2
07:19 69.7 °F /  20.9 °C 67.3 °F /  19.6 °C 30.04in /  1017.2hPa Calm     92% 0.00in /  0mm 63 W/m2
07:24 69.8 °F /  21 °C 67.2 °F /  19.6 °C 30.04in /  1017.2hPa Calm     91.4% 0.00in /  0mm 76 W/m2
07:29 69.9 °F /  21.1 °C 67.2 °F /  19.6 °C 30.04in /  1017.2hPa Calm     91% 0.00in /  0mm 77 W/m2
07:34 70.1 °F /  21.2 °C 67.3 °F /  19.6 °C 30.04in /  1017.2hPa Calm     91% 0.00in /  0mm 91 W/m2
07:39 70.2 °F /  21.2 °C 67.2 °F /  19.6 °C 30.04in /  1017.2hPa Calm     90.2% 0.00in /  0mm 91 W/m2
07:44 70.4 °F /  21.3 °C 67.3 °F /  19.6 °C 30.04in /  1017.2hPa Calm     90% 0.00in /  0mm 83 W/m2
07:49 70.6 °F /  21.4 °C 67.6 °F /  19.8 °C 30.04in /  1017.2hPa Calm     90% 0.00in /  0mm 97 W/m2
07:54 70.8 °F /  21.6 °C 67.8 °F /  19.9 °C 30.04in /  1017.2hPa Calm     90% 0.00in /  0mm 134 W/m2
07:59 71.1 °F /  21.7 °C 68.1 °F /  20.1 °C 30.04in /  1017.2hPa Calm     90% 0.00in /  0mm 190 W/m2
08:00 71.4 °F /  21.9 °C 68.3 °F /  20.2 °C 30.04in /  1017.2hPa Calm     90% 0.00in /  0mm 206 W/m2
08:09 72.3 °F /  22.4 °C 69 °F /  20.6 °C 30.04in /  1017.2hPa Calm     89.4% 0.00in /  0mm 301 W/m2
08:14 73 °F /  22.8 °C 69.5 °F /  20.8 °C 30.04in /  1017.2hPa Calm     88.7% 0.00in /  0mm 313 W/m2
08:19 73.9 °F /  23.3 °C 69.8 °F /  21 °C 30.04in /  1017.2hPa Calm     87% 0.00in /  0mm 311 W/m2
08:24 74.6 °F /  23.7 °C 69.4 °F /  20.8 °C 30.04in /  1017.2hPa Calm     83.8% 0.00in /  0mm 315 W/m2
08:29 75.3 °F /  24.1 °C 69.5 °F /  20.8 °C 30.04in /  1017.2hPa Calm     82.1% 0.00in /  0mm 348 W/m2
08:34 75.8 °F /  24.3 °C 69.7 °F /  20.9 °C 30.04in /  1017.2hPa Calm     81.1% 0.00in /  0mm 364 W/m2
08:39 76.3 °F /  24.6 °C 69.5 °F /  20.8 °C 30.04in /  1017.2hPa Calm     79.6% 0.00in /  0mm 366 W/m2
08:44 76.7 °F /  24.8 °C 70 °F /  21.1 °C 30.04in /  1017.2hPa Calm     79.7% 0.00in /  0mm 355 W/m2
08:49 77.3 °F /  25.2 °C 70 °F /  21.1 °C 30.04in /  1017.2hPa Calm     78.4% 0.00in /  0mm 348 W/m2
08:54 77.6 °F /  25.3 °C 69.9 °F /  21.1 °C 30.04in /  1017.2hPa Calm     77% 0.00in /  0mm 383 W/m2
08:59 77.9 °F /  25.5 °C 70.1 °F /  21.2 °C 30.03in /  1016.8hPa Calm     77% 0.00in /  0mm 380 W/m2
09:04 78.5 °F /  25.8 °C 70.7 °F /  21.5 °C 30.03in /  1016.8hPa Calm     77.2% 0.00in /  0mm 367 W/m2
09:09 79 °F /  26.1 °C 71 °F /  21.7 °C 30.03in /  1016.8hPa Calm     76.6% 0.00in /  0mm 348 W/m2
09:14 79.5 °F /  26.4 °C 71.6 °F /  22 °C 30.03in /  1016.8hPa Calm     76.8% 0.00in /  0mm 346 W/m2
09:19 79.9 °F /  26.6 °C 71.6 °F /  22 °C 30.03in /  1016.8hPa Calm     75.8% 0.00in /  0mm 385 W/m2
09:24 80.4 °F /  26.9 °C 72.1 °F /  22.3 °C 30.03in /  1016.8hPa Calm     75.8% 0.00in /  0mm 404 W/m2
09:29 80.7 °F /  27.1 °C 71.3 °F /  21.8 °C 30.03in /  1016.8hPa Calm     73% 0.00in /  0mm 390 W/m2
09:34 81 °F /  27.2 °C 71.7 °F /  22.1 °C 30.03in /  1016.8hPa Calm     73.5% 0.00in /  0mm 381 W/m2
09:39 81.3 °F /  27.4 °C 72 °F /  22.2 °C 30.03in /  1016.8hPa Calm   1mph /  1.6km/h 73.3% 0.00in /  0mm 501 W/m2
09:44 81.9 °F /  27.7 °C 71.6 °F /  22 °C 30.03in /  1016.8hPa Calm   1mph /  1.6km/h 70.9% 0.00in /  0mm 554 W/m2
09:49 82.5 °F /  28.1 °C 71.1 °F /  21.7 °C 30.03in /  1016.8hPa Calm   1mph /  1.6km/h 68.4% 0.00in /  0mm 587 W/m2
09:54 83.2 °F /  28.4 °C 71.5 °F /  21.9 °C 30.02in /  1016.5hPa Calm   2mph /  3.2km/h 68.1% 0.00in /  0mm 624 W/m2
09:59 83.8 °F /  28.8 °C 72 °F /  22.2 °C 30.02in /  1016.5hPa WSW 0.2mph /  0.3km/h 3mph /  4.8km/h 67.6% 0.00in /  0mm 628 W/m2
10:04 84.6 °F /  29.2 °C 71.8 °F /  22.1 °C 30.02in /  1016.5hPa WSW 0.4mph /  0.6km/h 6mph /  9.7km/h 65.6% 0.00in /  0mm 615 W/m2
10:09 85.1 °F /  29.5 °C 72 °F /  22.2 °C 30.02in /  1016.5hPa Calm   6mph /  9.7km/h 65% 0.00in /  0mm 703 W/m2
10:14 85.6 °F /  29.8 °C 72.3 °F /  22.4 °C 30.02in /  1016.5hPa WSW 1.9mph /  3.1km/h 6mph /  9.7km/h 64.7% 0.00in /  0mm 703 W/m2
10:19 85.7 °F /  29.8 °C 71.6 °F /  22 °C 30.02in /  1016.5hPa WSW 0.2mph /  0.3km/h 6mph /  9.7km/h 62.7% 0.00in /  0mm 724 W/m2
10:24 86.1 °F /  30.1 °C 72.4 °F /  22.4 °C 30.02in /  1016.5hPa WSW 0.3mph /  0.5km/h 6mph /  9.7km/h 63.6% 0.00in /  0mm 724 W/m2
10:29 86.5 °F /  30.3 °C 72 °F /  22.2 °C 30.02in /  1016.5hPa Calm   6mph /  9.7km/h 62.2% 0.00in /  0mm 571 W/m2
10:34 86.2 °F /  30.1 °C 71.4 °F /  21.9 °C 30.02in /  1016.5hPa Calm   6mph /  9.7km/h 61.5% 0.00in /  0mm 276 W/m2
10:39 85.6 °F /  29.8 °C 71.2 °F /  21.8 °C 30.02in /  1016.5hPa Calm   1mph /  1.6km/h 62.2% 0.00in /  0mm 290 W/m2
10:44 85.2 °F /  29.6 °C 71.4 °F /  21.9 °C 30.02in /  1016.5hPa Calm   1mph /  1.6km/h 63.3% 0.00in /  0mm 329 W/m2
10:49 85 °F /  29.4 °C 72 °F /  22.2 °C 30.02in /  1016.5hPa WSW 0.1mph /  0.2km/h 1mph /  1.6km/h 65.2% 0.00in /  0mm 251 W/m2
10:54 84.9 °F /  29.4 °C 72.2 °F /  22.3 °C 30.02in /  1016.5hPa Calm   1mph /  1.6km/h 65.8% 0.00in /  0mm 218 W/m2
10:59 84.8 °F /  29.3 °C 72.2 °F /  22.3 °C 30.02in /  1016.5hPa WSW 0.2mph /  0.3km/h 3mph /  4.8km/h 66.1% 0.00in /  0mm 176 W/m2
11:04 84.6 °F /  29.2 °C 72 °F /  22.2 °C 30.02in /  1016.5hPa WSW 0.1mph /  0.2km/h 3mph /  4.8km/h 66.2% 0.00in /  0mm 183 W/m2
11:09 84.4 °F /  29.1 °C 72.5 °F /  22.5 °C 30.02in /  1016.5hPa Calm   2mph /  3.2km/h 67.6% 0.00in /  0mm 197 W/m2
11:14 84.3 °F /  29.1 °C 72.5 °F /  22.5 °C 30.02in /  1016.5hPa Calm   2mph /  3.2km/h 67.8% 0.00in /  0mm 239 W/m2
11:19 84.3 °F /  29.1 °C 72.7 °F /  22.6 °C 30.02in /  1016.5hPa Calm   2mph /  3.2km/h 68.2% 0.00in /  0mm 243 W/m2
11:24 84.2 °F /  29 °C 72.5 °F /  22.5 °C 30.02in /  1016.5hPa Calm   2mph /  3.2km/h 67.9% 0.00in /  0mm 178 W/m2
11:29 84.2 °F /  29 °C 72.5 °F /  22.5 °C 30.02in /  1016.5hPa Calm   2mph /  3.2km/h 68% 0.00in /  0mm 113 W/m2
11:34 84.1 °F /  28.9 °C 72.4 °F /  22.4 °C 30.02in /  1016.5hPa WSW 0.2mph /  0.3km/h 3mph /  4.8km/h 68% 0.00in /  0mm 88 W/m2
11:39 83.8 °F /  28.8 °C 72.3 °F /  22.4 °C 30.02in /  1016.5hPa West 0.4mph /  0.6km/h 3mph /  4.8km/h 68.4% 0.00in /  0mm 83 W/m2
11:44 83.4 °F /  28.6 °C 72.1 °F /  22.3 °C 30.02in /  1016.5hPa Calm   3mph /  4.8km/h 68.7% 0.00in /  0mm 90 W/m2
11:49 83.1 °F /  28.4 °C 72.2 °F /  22.3 °C 30.01in /  1016.1hPa West 0.1mph /  0.2km/h 3mph /  4.8km/h 69.8% 0.00in /  0mm 113 W/m2
11:54 82.8 °F /  28.2 °C 71.7 °F /  22.1 °C 30.01in /  1016.1hPa Calm   3mph /  4.8km/h 69.3% 0.00in /  0mm 139 W/m2
11:59 82.5 °F /  28.1 °C 71.6 °F /  22 °C 30.01in /  1016.1hPa Calm   3mph /  4.8km/h 69.8% 0.00in /  0mm 144 W/m2
12:00 82.4 °F /  28 °C 71.6 °F /  22 °C 30.01in /  1016.1hPa Calm   3mph /  4.8km/h 70% 0.00in /  0mm 132 W/m2
12:09 82.2 °F /  27.9 °C 71.6 °F /  22 °C 30.02in /  1016.5hPa Calm   1mph /  1.6km/h 70.3% 0.00in /  0mm 132 W/m2
12:14 82.1 °F /  27.8 °C 71.5 °F /  21.9 °C 30.01in /  1016.1hPa WSW 0.4mph /  0.6km/h 6mph /  9.7km/h 70.3% 0.00in /  0mm 132 W/m2
12:19 82 °F /  27.8 °C 71.6 °F /  22 °C 30.01in /  1016.1hPa West 0.4mph /  0.6km/h 7mph /  11.3km/h 71% 0.00in /  0mm 132 W/m2
12:24 81.7 °F /  27.6 °C 71.2 °F /  21.8 °C 30.01in /  1016.1hPa West 0.1mph /  0.2km/h 7mph /  11.3km/h 70.5% 0.00in /  0mm 153 W/m2
12:29 81.6 °F /  27.6 °C 71.4 °F /  21.9 °C 30.01in /  1016.1hPa Calm   7mph /  11.3km/h 71.2% 0.00in /  0mm 197 W/m2
12:34 81.6 °F /  27.6 °C 71.9 °F /  22.2 °C 30.01in /  1016.1hPa Calm   7mph /  11.3km/h 72.4% 0.00in /  0mm 236 W/m2
12:39 81.7 °F /  27.6 °C 71.9 °F /  22.2 °C 30.01in /  1016.1hPa Calm   1mph /  1.6km/h 72.1% 0.00in /  0mm 250 W/m2
12:44 81.9 °F /  27.7 °C 72.2 °F /  22.3 °C 30.01in /  1016.1hPa West 0.1mph /  0.2km/h 2mph /  3.2km/h 72.4% 0.00in /  0mm 269 W/m2
12:49 82.1 °F /  27.8 °C 71.9 °F /  22.2 °C 30.01in /  1016.1hPa West 0.7mph /  1.1km/h 5mph /  8km/h 71.5% 0.00in /  0mm 251 W/m2
12:54 82.3 °F /  27.9 °C 72 °F /  22.2 °C 30.00in /  1015.8hPa Calm   5mph /  8km/h 71.1% 0.00in /  0mm 283 W/m2
12:59 82.6 °F /  28.1 °C 72.3 °F /  22.4 °C 30.00in /  1015.8hPa West 0.1mph /  0.2km/h 5mph /  8km/h 71.1% 0.00in /  0mm 353 W/m2
13:04 82.8 °F /  28.2 °C 72.6 °F /  22.6 °C 30.01in /  1016.1hPa Calm   5mph /  8km/h 71.2% 0.00in /  0mm 429 W/m2
13:09 83.2 °F /  28.4 °C 73.1 °F /  22.8 °C 30.01in /  1016.1hPa West 0.3mph /  0.5km/h 4mph /  6.4km/h 71.7% 0.00in /  0mm 478 W/m2
13:14 83.7 °F /  28.7 °C 72.9 °F /  22.7 °C 30.01in /  1016.1hPa West 0.2mph /  0.3km/h 4mph /  6.4km/h 70% 0.00in /  0mm 545 W/m2
13:19 84.3 °F /  29.1 °C 73.1 °F /  22.8 °C 30.01in /  1016.1hPa Calm   4mph /  6.4km/h 69.1% 0.00in /  0mm 587 W/m2
13:24 84.8 °F /  29.3 °C 73.2 °F /  22.9 °C 30.01in /  1016.1hPa West 0.1mph /  0.2km/h 4mph /  6.4km/h 68.3% 0.00in /  0mm 606 W/m2
13:29 85.2 °F /  29.6 °C 72.8 °F /  22.7 °C 30.01in /  1016.1hPa Calm   4mph /  6.4km/h 66.4% 0.00in /  0mm 450 W/m2
13:34 85.6 °F /  29.8 °C 73.1 °F /  22.8 °C 30.01in /  1016.1hPa Calm   4mph /  6.4km/h 66.3% 0.00in /  0mm 450 W/m2
13:39 85.7 °F /  29.8 °C 72.3 °F /  22.4 °C 30.01in /  1016.1hPa West 0.2mph /  0.3km/h 4mph /  6.4km/h 64.6% 0.00in /  0mm 466 W/m2
13:44 85.8 °F /  29.9 °C 72.7 °F /  22.6 °C 30.00in /  1015.8hPa West 0.3mph /  0.5km/h 4mph /  6.4km/h 65.2% 0.00in /  0mm 566 W/m2
13:49 85.9 °F /  29.9 °C 72.5 °F /  22.5 °C 30.00in /  1015.8hPa WSW 0.9mph /  1.4km/h 5mph /  8km/h 64.4% 0.00in /  0mm 606 W/m2
13:54 86 °F /  30 °C 72.5 °F /  22.5 °C 30.00in /  1015.8hPa Calm   5mph /  8km/h 64.1% 0.00in /  0mm 450 W/m2
13:59 86.2 °F /  30.1 °C 72.5 °F /  22.5 °C 30.00in /  1015.8hPa SW 1.1mph /  1.8km/h 5mph /  8km/h 63.9% 0.00in /  0mm 473 W/m2
14:04 86.4 °F /  30.2 °C 72.3 °F /  22.4 °C 30.00in /  1015.8hPa WSW 1.5mph /  2.4km/h 5mph /  8km/h 63% 0.00in /  0mm 411 W/m2
14:09 86.4 °F /  30.2 °C 72.3 °F /  22.4 °C 30.00in /  1015.8hPa Calm   5mph /  8km/h 63% 0.00in /  0mm 499 W/m2
14:14 86.6 °F /  30.3 °C 72.4 °F /  22.4 °C 30.00in /  1015.8hPa WSW 1.8mph /  2.9km/h 6mph /  9.7km/h 62.9% 0.00in /  0mm 355 W/m2
14:19 86.6 °F /  30.3 °C 70.4 °F /  21.3 °C 30.00in /  1015.8hPa WSW 2.3mph /  3.7km/h 10mph /  16.1km/h 58.7% 0.00in /  0mm 313 W/m2
14:24 86.5 °F /  30.3 °C 70.3 °F /  21.3 °C 29.99in /  1015.5hPa West 1.4mph /  2.3km/h 11mph /  17.7km/h 58.6% 0.00in /  0mm 313 W/m2
14:29 86.5 °F /  30.3 °C 70.6 °F /  21.4 °C 29.99in /  1015.5hPa WSW 0.1mph /  0.2km/h 11mph /  17.7km/h 59.2% 0.00in /  0mm 279 W/m2
14:34 86.5 °F /  30.3 °C 69.9 °F /  21.1 °C 29.99in /  1015.5hPa WSW 1.8mph /  2.9km/h 11mph /  17.7km/h 57.9% 0.00in /  0mm 295 W/m2
14:39 86.4 °F /  30.2 °C 69.3 °F /  20.7 °C 29.99in /  1015.5hPa West 0.2mph /  0.3km/h 11mph /  17.7km/h 56.9% 0.00in /  0mm 295 W/m2
14:44 86.3 °F /  30.2 °C 69.5 °F /  20.8 °C 29.99in /  1015.5hPa West 0.6mph /  1km/h 11mph /  17.7km/h 57.4% 0.00in /  0mm 269 W/m2
14:49 86.2 °F /  30.1 °C 68.7 °F /  20.4 °C 29.99in /  1015.5hPa WSW 1.1mph /  1.8km/h 11mph /  17.7km/h 55.9% 0.00in /  0mm 294 W/m2
14:54 86.1 °F /  30.1 °C 68.3 °F /  20.2 °C 29.99in /  1015.5hPa WSW 0.6mph /  1km/h 11mph /  17.7km/h 55.4% 0.00in /  0mm 253 W/m2
14:59 86 °F /  30 °C 68.8 °F /  20.4 °C 29.99in /  1015.5hPa WSW 0.4mph /  0.6km/h 11mph /  17.7km/h 56.5% 0.00in /  0mm 276 W/m2
15:04 85.9 °F /  29.9 °C 68.5 °F /  20.3 °C 29.99in /  1015.5hPa WSW 1mph /  1.6km/h 11mph /  17.7km/h 56.2% 0.00in /  0mm 327 W/m2
15:09 85.9 °F /  29.9 °C 67.9 °F /  19.9 °C 29.99in /  1015.5hPa WSW 1.7mph /  2.7km/h 6mph /  9.7km/h 55.1% 0.00in /  0mm 292 W/m2
15:14 85.8 °F /  29.9 °C 67.7 °F /  19.8 °C 29.99in /  1015.5hPa SW 0.8mph /  1.3km/h 6mph /  9.7km/h 54.8% 0.00in /  0mm 248 W/m2
15:19 85.7 °F /  29.8 °C 68.4 °F /  20.2 °C 29.99in /  1015.5hPa SW 0.1mph /  0.2km/h 6mph /  9.7km/h 56.3% 0.00in /  0mm 229 W/m2
15:24 85.6 °F /  29.8 °C 68.2 °F /  20.1 °C 29.99in /  1015.5hPa WSW 0.9mph /  1.4km/h 6mph /  9.7km/h 56.3% 0.00in /  0mm 267 W/m2
15:29 85.4 °F /  29.7 °C 68.2 °F /  20.1 °C 29.99in /  1015.5hPa SW 0.9mph /  1.4km/h 6mph /  9.7km/h 56.5% 0.00in /  0mm 260 W/m2
15:34 85.3 °F /  29.6 °C 67.6 °F /  19.8 °C 29.99in /  1015.5hPa WSW 1.9mph /  3.1km/h 6mph /  9.7km/h 55.5% 0.00in /  0mm 221 W/m2
15:39 85.2 °F /  29.6 °C 68 °F /  20 °C 29.99in /  1015.5hPa WSW 1.8mph /  2.9km/h 8mph /  12.9km/h 56.6% 0.00in /  0mm 216 W/m2
15:44 85.1 °F /  29.5 °C 67.8 °F /  19.9 °C 29.99in /  1015.5hPa West 0.9mph /  1.4km/h 8mph /  12.9km/h 56.4% 0.00in /  0mm 206 W/m2
15:49 85 °F /  29.4 °C 67.5 °F /  19.7 °C 29.98in /  1015.1hPa West 1mph /  1.6km/h 8mph /  12.9km/h 56% 0.00in /  0mm 207 W/m2
15:54 84.9 °F /  29.4 °C 67.3 °F /  19.6 °C 29.98in /  1015.1hPa West 0.8mph /  1.3km/h 8mph /  12.9km/h 55.7% 0.00in /  0mm 234 W/m2
15:59 84.8 °F /  29.3 °C 67.5 °F /  19.7 °C 29.99in /  1015.5hPa West 0.5mph /  0.8km/h 8mph /  12.9km/h 56.2% 0.00in /  0mm 239 W/m2
16:00 84.8 °F /  29.3 °C 67.9 °F /  19.9 °C 29.98in /  1015.1hPa West 1mph /  1.6km/h 8mph /  12.9km/h 57% 0.00in /  0mm 220 W/m2
16:09 84.8 °F /  29.3 °C 67.4 °F /  19.7 °C 29.98in /  1015.1hPa Calm     56.1% 0.00in /  0mm 232 W/m2
16:14 84.9 °F /  29.4 °C 67 °F /  19.4 °C 29.98in /  1015.1hPa WSW 1.1mph /  1.8km/h 5mph /  8km/h 55.1% 0.00in /  0mm 241 W/m2
16:19 84.9 °F /  29.4 °C 67.3 °F /  19.6 °C 29.98in /  1015.1hPa WSW 0.5mph /  0.8km/h 5mph /  8km/h 55.7% 0.00in /  0mm 220 W/m2
16:24 84.9 °F /  29.4 °C 67.7 °F /  19.8 °C 29.98in /  1015.1hPa WSW 0.9mph /  1.4km/h 7mph /  11.3km/h 56.4% 0.00in /  0mm 204 W/m2
16:29 84.9 °F /  29.4 °C 67.8 °F /  19.9 °C 29.98in /  1015.1hPa SW 0.1mph /  0.2km/h 7mph /  11.3km/h 56.7% 0.00in /  0mm 200 W/m2
16:34 85 °F /  29.4 °C 68.3 °F /  20.2 °C 29.98in /  1015.1hPa SW 0.1mph /  0.2km/h 7mph /  11.3km/h 57.4% 0.00in /  0mm 185 W/m2
16:39 85 °F /  29.4 °C 68.2 °F /  20.1 °C 29.98in /  1015.1hPa SW 0.6mph /  1km/h 5mph /  8km/h 57.3% 0.00in /  0mm 171 W/m2
16:44 85 °F /  29.4 °C 68.4 °F /  20.2 °C 29.98in /  1015.1hPa SW 0.6mph /  1km/h 6mph /  9.7km/h 57.7% 0.00in /  0mm 149 W/m2
16:49 84.9 °F /  29.4 °C 68.1 °F /  20.1 °C 29.97in /  1014.8hPa SW 1.2mph /  1.9km/h 6mph /  9.7km/h 57.3% 0.00in /  0mm 160 W/m2
16:54 84.8 °F /  29.3 °C 67.8 °F /  19.9 °C 29.97in /  1014.8hPa SW 1.3mph /  2.1km/h 6mph /  9.7km/h 56.9% 0.00in /  0mm 158 W/m2
16:59 84.7 °F /  29.3 °C 68.3 °F /  20.2 °C 29.97in /  1014.8hPa WSW 0.5mph /  0.8km/h 6mph /  9.7km/h 58% 0.00in /  0mm 153 W/m2
17:04 84.6 °F /  29.2 °C 68.7 °F /  20.4 °C 29.97in /  1014.8hPa WSW 0.2mph /  0.3km/h 6mph /  9.7km/h 58.9% 0.00in /  0mm 139 W/m2
17:09 84.6 °F /  29.2 °C 68.8 °F /  20.4 °C 29.97in /  1014.8hPa WSW 0.2mph /  0.3km/h 2mph /  3.2km/h 59.2% 0.00in /  0mm 121 W/m2
17:14 84.6 °F /  29.2 °C 68.7 °F /  20.4 °C 29.97in /  1014.8hPa WSW 0.4mph /  0.6km/h 3mph /  4.8km/h 59.1% 0.00in /  0mm 121 W/m2
17:19 84.5 °F /  29.2 °C 68.9 °F /  20.5 °C 29.97in /  1014.8hPa WSW 0.5mph /  0.8km/h 4mph /  6.4km/h 59.5% 0.00in /  0mm 128 W/m2
17:24 84.4 °F /  29.1 °C 68.9 °F /  20.5 °C 29.97in /  1014.8hPa WSW 1.3mph /  2.1km/h 6mph /  9.7km/h 59.7% 0.00in /  0mm 128 W/m2
17:29 84.3 °F /  29.1 °C 69 °F /  20.6 °C 29.97in /  1014.8hPa WSW 0.5mph /  0.8km/h 6mph /  9.7km/h 60.1% 0.00in /  0mm 121 W/m2
17:34 84.3 °F /  29.1 °C 69.1 °F /  20.6 °C 29.97in /  1014.8hPa WSW 0.6mph /  1km/h 6mph /  9.7km/h 60.5% 0.00in /  0mm 111 W/m2
17:39 84.2 °F /  29 °C 69.3 °F /  20.7 °C 29.97in /  1014.8hPa WSW 0.2mph /  0.3km/h 4mph /  6.4km/h 60.9% 0.00in /  0mm 105 W/m2
17:44 84.2 °F /  29 °C 69.3 °F /  20.7 °C 29.97in /  1014.8hPa WSW 0.2mph /  0.3km/h 4mph /  6.4km/h 61% 0.00in /  0mm 98 W/m2
17:49 84.1 °F /  28.9 °C 69.2 °F /  20.7 °C 29.97in /  1014.8hPa WSW 0.2mph /  0.3km/h 4mph /  6.4km/h 61% 0.00in /  0mm 95 W/m2
17:54 83.9 °F /  28.8 °C 69.3 °F /  20.7 °C 29.97in /  1014.8hPa WSW 0.1mph /  0.2km/h 4mph /  6.4km/h 61.5% 0.00in /  0mm 88 W/m2
17:59 83.8 °F /  28.8 °C 69.7 °F /  20.9 °C 29.97in /  1014.8hPa WSW 0.3mph /  0.5km/h 4mph /  6.4km/h 62.5% 0.00in /  0mm 81 W/m2
18:04 83.7 °F /  28.7 °C 69.5 °F /  20.8 °C 29.97in /  1014.8hPa Calm   4mph /  6.4km/h 62.5% 0.00in /  0mm 70 W/m2
18:09 83.5 °F /  28.6 °C 69.5 °F /  20.8 °C 29.97in /  1014.8hPa Calm   1mph /  1.6km/h 62.8% 0.00in /  0mm 62 W/m2
18:14 83.3 °F /  28.5 °C 69.6 °F /  20.9 °C 29.97in /  1014.8hPa Calm   1mph /  1.6km/h 63.6% 0.00in /  0mm 56 W/m2
18:19 83.1 °F /  28.4 °C 69.9 °F /  21.1 °C 29.97in /  1014.8hPa Calm   1mph /  1.6km/h 64.5% 0.00in /  0mm 53 W/m2
18:24 82.9 °F /  28.3 °C 69.5 °F /  20.8 °C 29.97in /  1014.8hPa Calm   1mph /  1.6km/h 64.2% 0.00in /  0mm 49 W/m2
18:29 82.7 °F /  28.2 °C 69.8 °F /  21 °C 29.97in /  1014.8hPa WSW 0.1mph /  0.2km/h 3mph /  4.8km/h 65% 0.00in /  0mm 46 W/m2
18:34 82.5 °F /  28.1 °C 69.7 °F /  20.9 °C 29.97in /  1014.8hPa Calm   3mph /  4.8km/h 65.3% 0.00in /  0mm 40 W/m2
18:39 82.4 °F /  28 °C 69.9 °F /  21.1 °C 29.97in /  1014.8hPa Calm     66% 0.00in /  0mm 37 W/m2
18:44 82.2 °F /  27.9 °C 69.7 °F /  20.9 °C 29.97in /  1014.8hPa Calm     66% 0.00in /  0mm 33 W/m2
18:49 82.1 °F /  27.8 °C 69.9 °F /  21.1 °C 29.97in /  1014.8hPa Calm     66.8% 0.00in /  0mm 32 W/m2
18:54 81.9 °F /  27.7 °C 69.9 °F /  21.1 °C 29.97in /  1014.8hPa Calm     67% 0.00in /  0mm 28 W/m2
18:59 81.8 °F /  27.7 °C 69.8 °F /  21 °C 29.97in /  1014.8hPa Calm     67% 0.00in /  0mm 26 W/m2
19:04 81.7 °F /  27.6 °C 69.7 °F /  20.9 °C 29.97in /  1014.8hPa Calm     67% 0.00in /  0mm 25 W/m2
19:09 81.7 °F /  27.6 °C 69.9 °F /  21.1 °C 29.97in /  1014.8hPa Calm     67.7% 0.00in /  0mm 21 W/m2
19:14 81.6 °F /  27.6 °C 70 °F /  21.1 °C 29.97in /  1014.8hPa Calm     68% 0.00in /  0mm 19 W/m2
19:19 81.5 °F /  27.5 °C 69.9 °F /  21.1 °C 29.97in /  1014.8hPa Calm     68% 0.00in /  0mm 16 W/m2
19:24 81.4 °F /  27.4 °C 69.8 °F /  21 °C 29.97in /  1014.8hPa Calm     68.1% 0.00in /  0mm 14 W/m2
19:29 81.2 °F /  27.3 °C 70.1 °F /  21.2 °C 29.97in /  1014.8hPa Calm     69% 0.00in /  0mm 11 W/m2
19:34 81.1 °F /  27.3 °C 70 °F /  21.1 °C 29.97in /  1014.8hPa Calm     69% 0.00in /  0mm 7 W/m2
19:39 80.9 °F /  27.2 °C 69.8 °F /  21 °C 29.97in /  1014.8hPa Calm     69% 0.00in /  0mm 5 W/m2
19:44 80.8 °F /  27.1 °C 69.9 °F /  21.1 °C 29.98in /  1015.1hPa Calm     69.5% 0.00in /  0mm 0 W/m2
19:49 80.6 °F /  27 °C 69.9 °F /  21.1 °C 29.98in /  1015.1hPa Calm     70% 0.00in /  0mm 0 W/m2
19:54 80.4 °F /  26.9 °C 69.7 °F /  20.9 °C 29.98in /  1015.1hPa Calm     70% 0.00in /  0mm 0 W/m2
19:59 80.3 °F /  26.8 °C 69.6 °F /  20.9 °C 29.98in /  1015.1hPa Calm     70% 0.00in /  0mm 0 W/m2
20:00 80.2 °F /  26.8 °C 69.5 °F /  20.8 °C 29.98in /  1015.1hPa Calm     70% 0.00in /  0mm 0 W/m2
20:09 79.9 °F /  26.6 °C 69.3 °F /  20.7 °C 29.98in /  1015.1hPa Calm     70% 0.00in /  0mm 0 W/m2
20:14 79.8 °F /  26.6 °C 68.8 °F /  20.4 °C 29.98in /  1015.1hPa Calm     69.2% 0.00in /  0mm 0 W/m2
20:19 79.6 °F /  26.4 °C 68.6 °F /  20.3 °C 29.98in /  1015.1hPa Calm     69% 0.00in /  0mm 0 W/m2
20:24 79.6 °F /  26.4 °C 68.4 °F /  20.2 °C 29.98in /  1015.1hPa Calm   1mph /  1.6km/h 68.8% 0.00in /  0mm 0 W/m2
20:29 79.5 °F /  26.4 °C 68.1 °F /  20.1 °C 29.98in /  1015.1hPa Calm   1mph /  1.6km/h 68% 0.00in /  0mm 0 W/m2
20:34 79.5 °F /  26.4 °C 67.6 °F /  19.8 °C 29.98in /  1015.1hPa Calm   1mph /  1.6km/h 67.1% 0.00in /  0mm 0 W/m2
20:39 79.4 °F /  26.3 °C 67.5 °F /  19.7 °C 29.99in /  1015.5hPa Calm     66.8% 0.00in /  0mm 0 W/m2
20:44 79.3 °F /  26.3 °C 67 °F /  19.4 °C 29.99in /  1015.5hPa Calm     66% 0.00in /  0mm 0 W/m2
20:49 79.2 °F /  26.2 °C 66.8 °F /  19.3 °C 29.99in /  1015.5hPa Calm   1mph /  1.6km/h 66% 0.00in /  0mm 0 W/m2
20:54 79 °F /  26.1 °C 66.7 °F /  19.3 °C 29.99in /  1015.5hPa Calm   1mph /  1.6km/h 66% 0.00in /  0mm 0 W/m2
20:59 78.9 °F /  26.1 °C 66.6 °F /  19.2 °C 29.99in /  1015.5hPa Calm   1mph /  1.6km/h 66% 0.00in /  0mm 0 W/m2
21:04 78.7 °F /  25.9 °C 66.4 °F /  19.1 °C 29.99in /  1015.5hPa Calm   1mph /  1.6km/h 66% 0.00in /  0mm 0 W/m2
21:09 78.6 °F /  25.9 °C 66.4 °F /  19.1 °C 29.99in /  1015.5hPa Calm     66.2% 0.00in /  0mm 0 W/m2
21:14 78.5 °F /  25.8 °C 66.5 °F /  19.2 °C 29.99in /  1015.5hPa Calm     66.7% 0.00in /  0mm 0 W/m2
21:19 78.3 °F /  25.7 °C 66.4 °F /  19.1 °C 29.99in /  1015.5hPa Calm     66.8% 0.00in /  0mm 0 W/m2
21:22 78.2 °F /  25.7 °C 66.4 °F /  19.1 °C 29.99in /  1015.5hPa Calm     67% 0.00in /  0mm 0 W/m2
21:30 78 °F /  25.6 °C 65.7 °F /  18.7 °C 29.99in /  1015.5hPa Calm   1mph /  1.6km/h 66% 0.00in /  0mm 0 W/m2
22:00 77.2 °F /  25.1 °C 65.4 °F /  18.6 °C 29.99in /  1015.5hPa Calm   1mph /  1.6km/h 67% 0.00in /  0mm 0 W/m2
22:30 76.3 °F /  24.6 °C 65 °F /  18.3 °C 29.99in /  1015.5hPa Calm     68% 0.00in /  0mm 0 W/m2
23:00 75.6 °F /  24.2 °C 64.7 °F /  18.2 °C 30.00in /  1015.8hPa Calm     69% 0.00in /  0mm 0 W/m2
23:30 74.7 °F /  23.7 °C 65.1 °F /  18.4 °C 30.00in /  1015.8hPa Calm     72% 0.00in /  0mm 0 W/m2
Hartford County Weather
Compliments of Weather Underground - 2 mb